Time;durP1;ratioP1;P1;durP2;ratioP2;P2;SDS_P1;SDS_P2;PMS_P1;PMS_P2;Temp;Humidity;BMP_temperature;BMP_pressure;BME280_temperature;BME280_humidity;BME280_pressure;Samples;Min_cycle;Max_cycle;Signal;HPM_P1;HPM_P2
2021/11/06 00:01:59;;;;;;;1.65;1.10;;;;;;;6.44;100.00;102261.25;6296863;28;20423;-66
2021/11/06 00:05:00;;;;;;;5.47;1.40;;;;;;;6.44;100.00;102263.00;6296701;28;20055;-66
2021/11/06 00:08:02;;;;;;;3.35;1.38;;;;;;;6.44;100.00;102271.69;6296950;28;20060;-66
2021/11/06 00:11:03;;;;;;;1.85;1.10;;;;;;;6.43;100.00;102266.50;6296068;28;20048;-66
2021/11/06 00:14:06;;;;;;;0.77;0.77;;;;;;;6.44;100.00;102265.59;6296700;28;20057;-66
2021/11/06 00:17:07;;;;;;;4.07;1.00;;;;;;;6.42;100.00;102265.63;6296760;28;20415;-65
2021/11/06 00:20:10;;;;;;;1.30;1.10;;;;;;;6.40;100.00;102274.34;6296924;28;20044;-66
2021/11/06 00:23:12;;;;;;;1.35;0.80;;;;;;;6.37;100.00;102271.81;6295744;28;20055;-65
2021/11/06 00:26:13;;;;;;;1.63;1.20;;;;;;;6.38;100.00;102276.13;6296237;28;20052;-66
2021/11/06 00:29:16;;;;;;;1.38;1.13;;;;;;;6.47;100.00;102276.88;6296650;28;20067;-66
2021/11/06 00:32:17;;;;;;;0.82;0.80;;;;;;;6.43;100.00;102276.94;6290095;28;20420;-66
2021/11/06 00:35:19;;;;;;;0.82;0.65;;;;;;;6.41;100.00;102268.28;6271435;28;20051;-66
2021/11/06 00:38:20;;;;;;;0.77;0.77;;;;;;;6.41;100.00;102274.38;6271897;28;20191;-65
2021/11/06 00:41:21;;;;;;;1.70;0.93;;;;;;;6.41;100.00;102276.97;6271588;28;20049;-66
2021/11/06 00:44:24;;;;;;;1.52;0.80;;;;;;;6.43;100.00;102283.03;6271018;28;20044;-65
2021/11/06 00:47:25;;;;;;;2.10;0.95;;;;;;;6.39;100.00;102280.47;6271403;28;20397;-66
2021/11/06 00:50:27;;;;;;;1.38;0.90;;;;;;;6.35;100.00;102275.28;6271479;28;20048;-66
2021/11/06 00:53:28;;;;;;;1.75;1.33;;;;;;;6.38;100.00;102268.31;6270918;28;20060;-66
2021/11/06 00:56:30;;;;;;;2.88;1.15;;;;;;;6.38;100.00;102276.13;6271455;28;20058;-66
2021/11/06 00:59:32;;;;;;;1.38;0.77;;;;;;;6.33;100.00;102268.34;6271491;28;20044;-65
2021/11/06 01:02:34;;;;;;;1.75;1.10;;;;;;;6.31;100.00;102271.00;6278824;28;20051;-65
2021/11/06 01:05:35;;;;;;;1.92;1.35;;;;;;;6.34;100.00;102270.06;6296067;28;20049;-66
2021/11/06 01:08:37;;;;;;;1.67;0.90;;;;;;;6.31;100.00;102268.38;6296080;28;20044;-66
2021/11/06 01:11:39;;;;;;;1.77;1.20;;;;;;;6.31;100.00;102267.50;6295841;28;20400;-66
2021/11/06 01:14:42;;;;;;;3.40;0.85;;;;;;;6.28;100.00;102265.78;6295774;28;20051;-66
2021/11/06 01:17:45;;;;;;;4.30;0.88;;;;;;;6.32;100.00;102267.50;6297719;28;20044;-66
2021/11/06 01:20:46;;;;;;;5.75;1.10;;;;;;;6.32;100.00;102266.63;6300950;28;20458;-66
2021/11/06 01:23:47;;;;;;;1.77;1.13;;;;;;;6.35;100.00;102261.34;6300697;28;20074;-66
2021/11/06 01:26:49;;;;;;;2.35;1.38;;;;;;;6.33;100.00;102273.56;6300834;28;20045;-66
2021/11/06 01:29:52;;;;;;;1.13;1.02;;;;;;;6.31;100.00;102268.38;6301006;28;20055;-66
2021/11/06 01:32:53;;;;;;;6.03;1.88;;;;;;;6.30;100.00;102273.59;6299837;28;20052;-66
2021/11/06 01:35:54;;;;;;;2.20;1.40;;;;;;;6.29;100.00;102274.50;6285691;28;20045;-66
2021/11/06 01:38:56;;;;;;;1.92;1.17;;;;;;;6.30;100.00;102273.59;6275963;28;20056;-65
2021/11/06 01:41:57;;;;;;;2.45;0.80;;;;;;;6.28;100.00;102278.00;6275750;28;20088;-66
2021/11/06 01:45:00;;;;;;;1.73;1.02;;;;;;;6.29;100.00;102274.50;6275286;28;20459;-65
2021/11/06 01:48:01;;;;;;;1.77;1.10;;;;;;;6.27;100.00;102279.75;6275622;28;20496;-66
2021/11/06 01:51:05;;;;;;;1.00;0.90;;;;;;;6.23;100.00;102283.25;6275550;28;20052;-66
2021/11/06 01:54:06;;;;;;;3.25;0.88;;;;;;;6.21;100.00;102281.53;6275299;28;20056;-66
2021/11/06 01:57:08;;;;;;;6.90;1.25;;;;;;;6.19;100.00;102273.72;6275314;28;20481;-66
2021/11/06 02:00:14;;;;;;;2.58;1.00;;;;;;;6.20;100.00;102274.59;6275613;28;20508;-65
2021/11/06 02:03:15;;;;;;;1.92;1.13;;;;;;;6.20;100.00;102271.97;6290208;28;20052;-65
2021/11/06 02:06:16;;;;;;;2.13;1.00;;;;;;;6.16;100.00;102273.75;6299861;28;20053;-66
2021/11/06 02:09:18;;;;;;;3.17;1.20;;;;;;;6.15;100.00;102272.03;6299849;28;20518;-66
2021/11/06 02:12:19;;;;;;;2.60;1.20;;;;;;;6.10;100.00;102273.81;6300010;28;20040;-66
2021/11/06 02:15:22;;;;;;;2.88;1.55;;;;;;;6.14;100.00;102265.09;6299665;28;20385;-66
2021/11/06 02:18:24;;;;;;;1.27;1.00;;;;;;;6.14;100.00;102266.84;6299987;28;20051;-66
2021/11/06 02:21:27;;;;;;;3.40;1.45;;;;;;;6.13;100.00;102260.72;6299367;28;20070;-65
2021/11/06 02:24:29;;;;;;;1.15;1.05;;;;;;;6.15;100.00;102253.75;6299099;28;20067;-66
2021/11/06 02:27:31;;;;;;;2.67;1.17;;;;;;;6.13;100.00;102260.72;6299504;28;20048;-66
2021/11/06 02:30:32;;;;;;;1.65;1.30;;;;;;;6.15;100.00;102253.75;6299193;28;20064;-66
2021/11/06 02:33:34;;;;;;;2.33;0.85;;;;;;;6.14;100.00;102262.47;6298097;28;20045;-65
2021/11/06 02:36:37;;;;;;;1.65;1.20;;;;;;;6.18;100.00;102269.41;6299115;28;20055;-66
2021/11/06 02:39:38;;;;;;;3.70;1.60;;;;;;;6.13;100.00;102265.94;6299310;28;20059;-66
2021/11/06 02:42:41;;;;;;;1.38;0.90;;;;;;;6.12;100.00;102258.13;6299046;28;20052;-66
2021/11/06 02:45:42;;;;;;;1.23;1.10;;;;;;;6.09;100.00;102256.44;6299173;28;20045;-65
2021/11/06 02:48:43;;;;;;;1.60;1.15;;;;;;;6.05;100.00;102249.53;6299064;28;20056;-65
2021/11/06 02:51:46;;;;;;;3.95;1.30;;;;;;;6.03;100.00;102252.13;6299154;28;20056;-66
2021/11/06 02:54:47;;;;;;;2.55;1.13;;;;;;;6.06;100.00;102256.47;6298644;28;20044;-66
2021/11/06 02:57:49;;;;;;;1.60;1.33;;;;;;;6.07;100.00;102260.78;6298668;28;20045;-66
2021/11/06 03:00:51;;;;;;;3.55;1.25;;;;;;;6.09;100.00;102254.69;6298884;28;20055;-65
2021/11/06 03:03:52;;;;;;;1.95;1.10;;;;;;;6.06;100.00;102259.06;6297534;28;20059;-65
2021/11/06 03:06:55;;;;;;;1.05;0.95;;;;;;;6.04;100.00;102264.31;6298656;28;20052;-65
2021/11/06 03:09:56;;;;;;;1.20;1.10;;;;;;;6.02;100.00;102260.84;6298413;28;20051;-65
2021/11/06 03:12:58;;;;;;;2.83;1.35;;;;;;;6.05;100.00;102265.19;6298349;28;20118;-66
2021/11/06 03:16:00;;;;;;;1.90;1.27;;;;;;;6.04;100.00;102256.50;6297714;28;20052;-66
2021/11/06 03:19:01;;;;;;;2.25;1.25;;;;;;;6.05;100.00;102260.81;6298556;28;20056;-65
2021/11/06 03:22:04;;;;;;;2.97;1.98;;;;;;;6.06;100.00;102259.94;6298123;28;20427;-66
2021/11/06 03:25:07;;;;;;;2.92;1.48;;;;;;;6.09;100.00;102262.53;6298013;28;20052;-66
2021/11/06 03:28:08;;;;;;;2.72;1.75;;;;;;;6.11;100.00;102262.50;6298263;28;20044;-66
2021/11/06 03:31:10;;;;;;;1.20;0.95;;;;;;;6.11;100.00;102259.88;6297926;28;20396;-65
2021/11/06 03:34:11;;;;;;;2.60;1.40;;;;;;;6.10;100.00;102256.41;6283747;28;20079;-66
2021/11/06 03:37:14;;;;;;;2.58;1.50;;;;;;;6.09;100.00;102265.13;6272863;28;20416;-66
2021/11/06 03:40:16;;;;;;;2.28;1.25;;;;;;;6.12;100.00;102271.19;6276868;28;20652;-66
2021/11/06 03:43:17;;;;;;;2.22;1.40;;;;;;;6.14;100.00;102270.31;6285548;28;20048;-65
2021/11/06 03:46:18;;;;;;;2.78;1.40;;;;;;;6.15;100.00;102268.56;6297271;28;20395;-65
2021/11/06 03:49:20;;;;;;;5.97;1.90;;;;;;;6.16;100.00;102278.97;6296670;28;20068;-66
2021/11/06 03:52:23;;;;;;;7.22;1.80;;;;;;;6.18;100.00;102268.53;6297419;28;20055;-66
2021/11/06 03:55:24;;;;;;;3.55;1.45;;;;;;;6.22;100.00;102278.94;6297081;28;20048;-66
2021/11/06 03:58:26;;;;;;;2.90;1.70;;;;;;;6.25;100.00;102283.22;6297459;28;20049;-65
2021/11/06 04:01:27;;;;;;;6.70;2.30;;;;;;;6.28;100.00;102285.81;6297226;28;20048;-65
2021/11/06 04:04:29;;;;;;;3.28;1.90;;;;;;;6.27;100.00;102281.50;6296703;28;20048;-65
2021/11/06 04:07:31;;;;;;;3.28;2.08;;;;;;;6.31;100.00;102285.78;6296877;28;20052;-64
2021/11/06 04:10:33;;;;;;;4.10;2.25;;;;;;;6.31;100.00;102289.28;6295429;28;20052;-64
2021/11/06 04:13:34;;;;;;;3.53;2.13;;;;;;;6.29;100.00;102280.56;6296686;28;20055;-65
2021/11/06 04:16:36;;;;;;;5.05;2.55;;;;;;;6.31;100.00;102285.78;6296885;28;20045;-65
2021/11/06 04:19:37;;;;;;;3.97;2.47;;;;;;;6.30;100.00;102284.91;6295699;28;20045;-65
2021/11/06 04:22:40;;;;;;;7.03;3.17;;;;;;;6.27;100.00;102289.31;6296670;28;20041;-65
2021/11/06 04:25:41;;;;;;;4.88;2.83;;;;;;;6.30;100.00;102290.13;6296311;28;20048;-65
2021/11/06 04:28:43;;;;;;;8.57;2.90;;;;;;;6.29;100.00;102287.53;6296618;28;20427;-65
2021/11/06 04:31:44;;;;;;;8.73;3.47;;;;;;;6.34;100.00;102296.19;6295937;28;20397;-66
2021/11/06 04:34:45;;;;;;;3.75;2.72;;;;;;;6.37;100.00;102292.69;6296108;28;20060;-65
2021/11/06 04:37:48;;;;;;;5.57;3.00;;;;;;;6.36;100.00;102286.59;6296694;28;20063;-65
2021/11/06 04:40:49;;;;;;;6.47;2.70;;;;;;;6.35;100.00;102283.09;6296301;28;20068;-65
2021/11/06 04:43:51;;;;;;;6.30;2.95;;;;;;;6.32;100.00;102285.78;6296403;28;20060;-66
2021/11/06 04:46:53;;;;;;;4.55;3.22;;;;;;;6.31;100.00;102284.06;6296046;28;20051;-65
2021/11/06 04:49:54;;;;;;;7.25;3.30;;;;;;;6.28;100.00;102291.91;6296609;28;20049;-65
2021/11/06 04:52:57;;;;;;;5.70;3.28;;;;;;;6.33;100.00;102292.72;6295215;28;20052;-65
2021/11/06 04:55:58;;;;;;;5.45;3.60;;;;;;;6.33;100.00;102282.28;6296046;28;20049;-64
2021/11/06 04:59:00;;;;;;;9.40;3.35;;;;;;;6.37;100.00;102284.88;6296517;28;20056;-66
2021/11/06 05:02:03;;;;;;;7.32;3.45;;;;;;;6.38;100.00;102287.44;6291145;28;20051;-66
2021/11/06 05:05:05;;;;;;;6.10;3.65;;;;;;;6.35;100.00;102285.72;6295935;28;20048;-66
2021/11/06 05:08:07;;;;;;;5.30;2.92;;;;;;;6.35;100.00;102277.88;6295970;28;20430;-65
2021/11/06 05:11:09;;;;;;;11.30;4.30;;;;;;;6.38;100.00;102278.75;6296255;28;20514;-66
2021/11/06 05:14:10;;;;;;;4.63;3.50;;;;;;;6.42;100.00;102283.91;6295899;28;20053;-66
2021/11/06 05:17:11;;;;;;;6.20;3.92;;;;;;;6.40;100.00;102275.22;6296296;28;20060;-66
2021/11/06 05:20:13;;;;;;;7.35;4.03;;;;;;;6.45;100.00;102278.66;6296053;28;20053;-66
2021/11/06 05:23:16;;;;;;;6.95;3.80;;;;;;;6.45;100.00;102281.28;6295987;28;20048;-66
2021/11/06 05:26:17;;;;;;;8.38;3.78;;;;;;;6.49;100.00;102280.34;6295592;28;20403;-66
2021/11/06 05:29:19;;;;;;;8.52;4.32;;;;;;;6.53;100.00;102282.03;6295741;28;20044;-66
2021/11/06 05:32:21;;;;;;;7.53;4.13;;;;;;;6.56;100.00;102273.31;6295663;28;20408;-66
2021/11/06 05:35:22;;;;;;;7.75;4.45;;;;;;;6.54;100.00;102281.19;6295377;28;20044;-66
2021/11/06 05:38:25;;;;;;;5.78;3.72;;;;;;;6.52;100.00;102288.16;6295818;28;20049;-66
2021/11/06 05:41:27;;;;;;;7.35;4.50;;;;;;;6.52;100.00;102287.28;6295508;28;20059;-66
2021/11/06 05:44:28;;;;;;;10.70;4.45;;;;;;;6.54;100.00;102291.63;6295563;28;20052;-65
2021/11/06 05:47:29;;;;;;;10.70;4.30;;;;;;;6.56;100.00;102291.59;6295463;28;20051;-66
2021/11/06 05:50:31;;;;;;;9.25;4.03;;;;;;;6.56;100.00;102287.22;6295686;28;20052;-65
2021/11/06 05:53:33;;;;;;;8.27;4.07;;;;;;;6.67;100.00;102289.69;6295018;28;20048;-66
2021/11/06 05:56:35;;;;;;;7.15;3.80;;;;;;;6.64;100.00;102291.50;6295634;28;20492;-65
2021/11/06 05:59:36;;;;;;;9.48;5.05;;;;;;;6.61;100.00;102282.81;6294957;28;20052;-65
2021/11/06 06:02:38;;;;;;;7.90;4.32;;;;;;;6.67;100.00;102283.63;6295406;28;20049;-66
2021/11/06 06:05:40;;;;;;;8.60;4.63;;;;;;;6.68;100.00;102285.38;6299605;28;20049;-65
2021/11/06 06:08:44;;;;;;;8.50;5.03;;;;;;;6.67;100.00;102292.31;6299649;28;20048;-66
2021/11/06 06:11:45;;;;;;;8.27;4.47;;;;;;;6.69;100.00;102282.72;6299817;28;20051;-65
2021/11/06 06:14:47;;;;;;;7.85;4.30;;;;;;;6.65;100.00;102286.25;6299452;28;20049;-66
2021/11/06 06:17:49;;;;;;;12.23;5.20;;;;;;;6.70;100.00;102296.66;6299801;28;20048;-65
2021/11/06 06:20:51;;;;;;;6.63;3.78;;;;;;;6.70;100.00;102278.38;6299550;28;20051;-65
2021/11/06 06:23:54;;;;;;;10.75;5.00;;;;;;;6.66;100.00;102287.97;6299603;28;20055;-66
2021/11/06 06:26:55;;;;;;;8.48;5.60;;;;;;;6.68;100.00;102285.38;6299440;28;20048;-65
2021/11/06 06:29:56;;;;;;;7.00;4.38;;;;;;;6.70;100.00;102288.81;6299351;28;20048;-66
2021/11/06 06:32:58;;;;;;;10.00;5.47;;;;;;;6.71;100.00;102277.47;6299253;28;20057;-66
2021/11/06 06:35:59;;;;;;;6.97;4.53;;;;;;;6.64;100.00;102284.53;6299283;28;20052;-65
2021/11/06 06:39:02;;;;;;;12.98;5.57;;;;;;;6.64;100.00;102292.38;6299501;28;20044;-65
2021/11/06 06:42:05;;;;;;;8.35;5.45;;;;;;;6.67;100.00;102284.47;6299311;28;20059;-66
2021/11/06 06:45:07;;;;;;;8.40;4.72;;;;;;;6.67;100.00;102288.84;6299168;28;20056;-66
2021/11/06 06:48:08;;;;;;;10.25;5.43;;;;;;;6.67;100.00;102288.84;6299120;28;20495;-66
2021/11/06 06:51:09;;;;;;;13.52;6.30;;;;;;;6.70;100.00;102299.25;6299120;28;20055;-66
2021/11/06 06:54:12;;;;;;;8.98;5.53;;;;;;;6.70;100.00;102301.88;6297274;28;20053;-66
2021/11/06 06:57:14;;;;;;;10.23;5.30;;;;;;;6.76;100.00;102304.41;6297756;28;20440;-66
2021/11/06 07:00:16;;;;;;;9.80;5.35;;;;;;;6.75;100.00;102308.75;6297941;28;20045;-66
2021/11/06 07:03:17;;;;;;;11.02;6.32;;;;;;;6.76;100.00;102309.63;6285466;28;20052;-65
2021/11/06 07:06:19;;;;;;;9.48;5.22;;;;;;;6.81;100.00;102313.03;6273374;28;20447;-65
2021/11/06 07:09:22;;;;;;;14.98;6.32;;;;;;;6.81;100.00;102299.97;6273801;28;20045;-65
2021/11/06 07:12:26;;;;;;;11.40;6.05;;;;;;;6.83;100.00;102311.28;6273608;28;20060;-66
2021/11/06 07:15:27;;;;;;;14.65;6.05;;;;;;;6.89;100.00;102307.72;6272087;28;20055;-66
2021/11/06 07:18:28;;;;;;;15.20;5.97;;;;;;;6.85;100.00;102320.81;6273381;28;20650;-66
2021/11/06 07:21:30;;;;;;;15.40;6.53;;;;;;;6.86;100.00;102319.97;6273216;28;20128;-66
2021/11/06 07:24:35;;;;;;;14.32;6.05;;;;;;;6.88;100.00;102312.09;6272920;28;20183;-65
2021/11/06 07:27:36;;;;;;;9.38;5.38;;;;;;;6.88;100.00;102319.06;6273138;28;20056;-65
2021/11/06 07:30:38;;;;;;;9.88;5.35;;;;;;;6.91;100.00;102322.53;6279680;28;20040;-66
2021/11/06 07:33:39;;;;;;;10.13;6.22;;;;;;;6.91;100.00;102324.28;6297440;28;20133;-66
2021/11/06 07:36:41;;;;;;;12.07;6.45;;;;;;;7.04;100.00;102325.81;6297598;28;20044;-66
2021/11/06 07:39:43;;;;;;;10.75;6.05;;;;;;;7.02;100.00;102327.59;6297443;28;20511;-66
2021/11/06 07:42:48;;;;;;;10.80;5.82;;;;;;;7.04;100.00;102325.81;6287679;28;20055;-66
2021/11/06 07:45:49;;;;;;;9.80;5.60;;;;;;;7.06;100.00;102330.16;6285290;28;20514;-66
2021/11/06 07:48:51;;;;;;;10.25;5.97;;;;;;;7.06;100.00;102327.53;6281848;28;20057;-66
2021/11/06 07:51:52;;;;;;;11.60;6.22;;;;;;;7.13;100.00;102323.09;6283770;28;20056;-65
2021/11/06 07:54:55;;;;;;;19.95;6.80;;;;;;;7.12;100.00;102322.22;6283276;28;20056;-66
2021/11/06 07:57:56;;;;;;;13.38;7.78;;;;;;;7.11;100.00;102317.00;6279446;28;20052;-66
2021/11/06 08:00:59;;;;;;;16.38;6.68;;;;;;;7.18;100.00;102330.88;6283517;28;20052;-65
2021/11/06 08:04:01;;;;;;;11.35;6.07;;;;;;;7.17;100.00;102322.16;6282878;28;20416;-66
2021/11/06 08:07:03;;;;;;;11.38;6.72;;;;;;;7.11;100.00;102328.34;6283400;28;20144;-65
2021/11/06 08:10:07;;;;;;;12.88;6.70;;;;;;;7.09;100.00;102322.28;6282928;28;20044;-66
2021/11/06 08:13:11;;;;;;;9.88;5.63;;;;;;;6.99;100.00;102328.47;6283568;28;20053;-66
2021/11/06 08:16:12;;;;;;;13.25;6.97;;;;;;;6.95;100.00;102323.31;6281634;28;20171;-66
2021/11/06 08:19:13;;;;;;;10.30;6.05;;;;;;;6.93;100.00;102312.91;6281531;28;20416;-66
2021/11/06 08:22:15;;;;;;;12.02;6.88;;;;;;;6.92;100.00;102326.00;6283819;28;20044;-66
2021/11/06 08:25:19;;;;;;;14.50;6.70;;;;;;;6.86;100.00;102319.09;6281833;28;20048;-66
2021/11/06 08:28:21;;;;;;;12.98;6.50;;;;;;;6.80;100.00;102321.78;6282691;28;20059;-66
2021/11/06 08:31:22;;;;;;;19.80;8.48;;;;;;;6.78;100.00;102324.41;6282672;28;20060;-66
2021/11/06 08:34:24;;;;;;;13.98;7.35;;;;;;;6.75;100.00;102326.19;6281564;28;20048;-66
2021/11/06 08:37:25;;;;;;;17.73;8.57;;;;;;;6.74;100.00;102322.72;6296619;28;20052;-66
2021/11/06 08:40:29;;;;;;;18.83;8.15;;;;;;;6.74;100.00;102324.47;6296355;28;20056;-66
2021/11/06 08:43:30;;;;;;;15.50;7.35;;;;;;;6.74;100.00;102321.84;6296366;28;20048;-66
2021/11/06 08:46:32;;;;;;;13.00;6.18;;;;;;;6.70;100.00;102325.38;6296348;28;20056;-66
2021/11/06 08:49:34;;;;;;;17.75;6.32;;;;;;;6.69;100.00;102332.38;6296380;28;20054;-66
2021/11/06 08:52:35;;;;;;;15.13;7.05;;;;;;;6.73;100.00;102333.19;6296142;28;20048;-66
2021/11/06 08:55:38;;;;;;;14.30;7.57;;;;;;;6.70;100.00;102334.09;6296111;28;20078;-66
2021/11/06 08:58:39;;;;;;;17.88;7.00;;;;;;;6.72;100.00;102341.91;6296262;28;20044;-66
2021/11/06 09:01:40;;;;;;;16.45;6.88;;;;;;;6.67;100.00;102339.34;6295004;28;20045;-66
2021/11/06 09:04:42;;;;;;;17.27;7.50;;;;;;;6.69;100.00;102341.94;6295665;28;20478;-66
2021/11/06 09:07:44;;;;;;;17.73;7.95;;;;;;;6.66;100.00;102335.00;6295826;28;20049;-66
2021/11/06 09:10:47;;;;;;;15.50;7.88;;;;;;;6.65;100.00;102333.28;6295867;28;20048;-66
2021/11/06 09:13:51;;;;;;;13.10;6.72;;;;;;;6.68;100.00;102329.78;6295763;28;20048;-66
2021/11/06 09:16:53;;;;;;;16.00;6.97;;;;;;;6.66;100.00;102326.31;6295985;28;20531;-66
2021/11/06 09:19:55;;;;;;;13.68;7.05;;;;;;;6.73;100.00;102327.97;6295994;28;20049;-66
2021/11/06 09:22:56;;;;;;;15.63;7.13;;;;;;;6.71;100.00;102324.50;6295971;28;20051;-66
2021/11/06 09:26:00;;;;;;;11.45;6.72;;;;;;;6.74;100.00;102325.34;6293386;28;20487;-67
2021/11/06 09:29:01;;;;;;;15.38;7.03;;;;;;;6.77;100.00;102321.84;6287756;28;20126;-66
2021/11/06 09:32:03;;;;;;;16.88;8.35;;;;;;;6.81;100.00;102332.22;6294571;28;20045;-66
2021/11/06 09:35:05;;;;;;;19.92;7.03;;;;;;;6.82;100.00;102326.09;6295223;28;20428;-66
2021/11/06 09:38:07;;;;;;;13.57;6.65;;;;;;;6.86;100.00;102325.19;6296215;28;20056;-64
2021/11/06 09:41:11;;;;;;;13.40;6.43;;;;;;;6.86;100.00;102319.97;6300015;28;20052;-66
2021/11/06 09:44:12;;;;;;;14.63;6.78;;;;;;;6.85;100.00;102323.44;6299912;28;20048;-66
2021/11/06 09:47:14;;;;;;;17.45;7.45;;;;;;;6.91;100.00;102325.13;6299760;28;20052;-66
2021/11/06 09:50:19;;;;;;;22.23;6.18;;;;;;;6.93;100.00;102318.13;6299668;28;20048;-66
2021/11/06 09:53:20;;;;;;;14.93;6.55;;;;;;;6.98;100.00;102318.91;6299399;28;20142;-66
2021/11/06 09:56:26;;;;;;;14.88;8.63;;;;;;;7.00;100.00;102314.56;6299769;28;20049;-66
2021/11/06 09:59:28;;;;;;;15.07;7.05;;;;;;;7.05;100.00;102317.09;6300216;28;20048;-66
2021/11/06 10:02:29;;;;;;;13.80;7.22;;;;;;;7.02;100.00;102318.00;6299405;28;20059;-66
2021/11/06 10:05:50;;;;;;;15.63;6.63;;;;;;;7.05;100.00;102324.94;6288293;28;20044;-65
2021/11/06 10:08:53;;;;;;;12.98;6.63;;;;;;;7.02;100.00;102320.63;6284987;28;20504;-65
2021/11/06 10:11:56;;;;;;;11.90;6.10;;;;;;;6.98;100.00;102320.69;6286109;28;20392;-65
2021/11/06 10:15:08;;;;;;;13.90;5.97;;;;;;;7.01;100.00;102312.81;6274665;28;20052;-65
2021/11/06 10:18:14;;;;;;;16.30;6.35;;;;;;;7.01;100.00;102311.06;6275122;28;20056;-65
2021/11/06 10:21:15;;;;;;;10.93;5.97;;;;;;;6.99;100.00;102306.72;6274744;28;20575;-66
2021/11/06 10:24:36;;;;;;;11.93;6.20;;;;;;;7.00;100.00;102306.72;6274543;28;20388;-66
2021/11/06 10:27:38;;;;;;;11.98;5.15;;;;;;;7.00;100.00;102304.09;6274720;28;20049;-65
2021/11/06 10:30:42;;;;;;;11.98;6.43;;;;;;;7.06;100.00;102300.53;6274774;28;20052;-65
2021/11/06 10:33:46;;;;;;;14.85;5.38;;;;;;;7.07;100.00;102303.13;6290825;28;20052;-64
2021/11/06 10:36:57;;;;;;;11.60;5.60;;;;;;;7.10;100.00;102303.09;6299563;28;20048;-65
2021/11/06 10:40:00;;;;;;;10.73;5.07;;;;;;;7.14;100.00;102293.47;6299316;28;20044;-67
2021/11/06 10:43:04;;;;;;;14.18;6.40;;;;;;;7.10;100.00;102290.00;6297518;28;20048;-65
2021/11/06 10:46:10;;;;;;;14.60;7.00;;;;;;;7.16;100.00;102293.44;6296723;28;20056;-66
2021/11/06 10:49:34;;;;;;;10.68;6.47;;;;;;;7.13;100.00;102281.28;6298748;28;20558;-66
2021/11/06 10:52:46;;;;;;;10.65;4.55;;;;;;;7.17;100.00;102279.47;6298951;28;20048;-66
2021/11/06 10:55:47;;;;;;;15.35;6.05;;;;;;;7.26;100.00;102281.94;6298642;28;20060;-66
2021/11/06 10:58:52;;;;;;;17.42;5.30;;;;;;;7.30;100.00;102281.00;6306487;28;20044;-66
2021/11/06 11:01:54;;;;;;;8.95;5.00;;;;;;;7.31;100.00;102277.50;6324003;28;20048;-66
2021/11/06 11:04:55;;;;;;;10.40;4.68;;;;;;;7.33;100.00;102278.34;6298479;28;20427;-65
2021/11/06 11:08:02;;;;;;;10.73;5.85;;;;;;;7.36;100.00;102276.56;6298575;28;20040;-66
2021/11/06 11:11:08;;;;;;;11.90;4.88;;;;;;;7.36;100.00;102270.47;6298236;28;20052;-66
2021/11/06 11:14:12;;;;;;;9.35;5.25;;;;;;;7.38;100.00;102266.06;6298324;28;20060;-66
2021/11/06 11:17:13;;;;;;;9.35;5.35;;;;;;;7.44;100.00;102265.09;6298226;28;20048;-66
2021/11/06 11:20:26;;;;;;;8.18;4.78;;;;;;;7.47;100.00;102265.06;6298372;28;20045;-66
2021/11/06 11:23:27;;;;;;;13.52;4.93;;;;;;;7.48;100.00;102246.72;6297932;28;20389;-65
2021/11/06 11:26:31;;;;;;;11.23;5.22;;;;;;;7.49;100.00;102252.81;6296356;28;20052;-66
2021/11/06 11:29:35;;;;;;;9.70;4.63;;;;;;;7.56;100.00;102246.59;6295731;28;20467;-67
2021/11/06 11:32:37;;;;;;;11.18;4.50;;;;;;;7.62;100.00;102246.50;6317618;22;20179;-67
2021/11/06 11:35:39;;;;;;;13.00;5.32;;;;;;;7.67;100.00;102257.72;6278181;28;20048;-68
2021/11/06 11:38:42;;;;;;;10.18;4.63;;;;;;;7.71;100.00;102254.19;6298013;28;20041;-68
2021/11/06 11:42:14;;;;;;;8.45;4.78;;;;;;;7.71;100.00;102241.09;6286873;28;20040;-68
2021/11/06 11:45:27;;;;;;;8.30;4.50;;;;;;;7.73;100.00;102234.09;6297662;28;20045;-67
2021/11/06 11:48:29;;;;;;;9.45;4.82;;;;;;;7.82;100.00;102238.31;6297489;28;20129;-68
2021/11/06 11:51:32;;;;;;;6.50;3.80;;;;;;;7.87;100.00;102229.47;6297251;28;20059;-68
2021/11/06 11:54:56;;;;;;;7.63;4.18;;;;;;;7.84;100.00;102228.66;6295885;28;20450;-68
2021/11/06 11:58:07;;;;;;;9.73;4.05;;;;;;;7.83;100.00;102219.09;6295722;28;20051;-68
2021/11/06 12:01:20;;;;;;;11.35;3.60;;;;;;;7.84;100.00;102218.19;6297220;28;20060;-67
2021/11/06 12:04:21;;;;;;;5.50;3.30;;;;;;;7.82;100.00;102209.53;6296527;28;20182;-68
2021/11/06 12:07:26;;;;;;;9.48;4.05;;;;;;;7.80;100.00;102200.81;6297187;28;20469;-68
2021/11/06 12:10:34;;;;;;;8.48;3.50;;;;;;;7.93;100.00;102204.06;6297026;28;20076;-68
2021/11/06 12:13:39;;;;;;;5.50;3.63;;;;;;;7.87;100.00;102203.31;6296649;28;20115;-68
2021/11/06 12:16:51;;;;;;;5.10;3.38;;;;;;;7.86;100.00;102198.97;6297039;28;20052;-68
2021/11/06 12:19:56;;;;;;;7.68;3.33;;;;;;;7.86;100.00;102195.50;6297114;28;20499;-68
2021/11/06 12:22:58;;;;;;;7.47;3.50;;;;;;;7.91;100.00;102196.25;6296952;28;20131;-68
2021/11/06 12:26:12;;;;;;;5.40;3.38;;;;;;;7.97;100.00;102190.03;6296707;28;20048;-68
2021/11/06 12:29:48;;;;;;;6.53;3.05;;;;;;;8.02;100.00;102181.19;6296790;28;20484;-68
2021/11/06 12:32:51;;;;;;;7.22;4.00;;;;;;;8.04;100.00;102182.06;6253448;28;20086;-68
2021/11/06 12:36:16;;;;;;;8.52;3.55;;;;;;;8.12;100.00;102172.25;6295566;28;20052;-68
2021/11/06 12:39:45;;;;;;;7.40;3.13;;;;;;;8.11;100.00;102169.69;6296819;28;20095;-68
2021/11/06 12:43:05;;;;;;;5.70;3.45;;;;;;;8.16;100.00;102169.59;6296634;28;20511;-69
2021/11/06 12:46:19;;;;;;;8.35;3.30;;;;;;;8.16;100.00;102164.34;6296352;28;20060;-69
2021/11/06 12:49:26;;;;;;;5.82;2.80;;;;;;;8.19;100.00;102165.16;6296610;28;20522;-68
2021/11/06 12:52:28;;;;;;;5.95;2.70;;;;;;;8.13;100.00;102165.28;6296318;28;20056;-68
2021/11/06 12:55:29;;;;;;;7.25;3.38;;;;;;;8.16;100.00;102164.34;6296152;28;20419;-69
2021/11/06 12:58:31;;;;;;;7.38;3.42;;;;;;;8.18;100.00;102154.72;6295844;28;20044;-68
2021/11/06 13:01:35;;;;;;;6.60;2.63;;;;;;;8.28;100.00;102151.00;6296201;28;20056;-68
2021/11/06 13:04:37;;;;;;;8.68;3.42;;;;;;;8.31;100.00;102149.19;6295071;28;20554;-68
2021/11/06 13:07:39;;;;;;;6.70;3.38;;;;;;;8.31;100.00;102148.31;6296326;28;20052;-69
2021/11/06 13:10:41;;;;;;;6.13;2.90;;;;;;;8.34;100.00;102140.41;6289480;28;20389;-68
2021/11/06 13:13:51;;;;;;;4.70;2.65;;;;;;;8.36;100.00;102138.63;6297368;28;20052;-69
2021/11/06 13:17:05;;;;;;;7.18;2.83;;;;;;;8.36;100.00;102144.75;6301143;28;20045;-68
2021/11/06 13:20:09;;;;;;;5.80;2.50;;;;;;;8.42;100.00;102135.88;6301377;28;20488;-68
2021/11/06 13:23:11;;;;;;;6.20;3.15;;;;;;;8.42;100.00;102135.88;6300766;28;20056;-68
2021/11/06 13:26:12;;;;;;;4.43;2.83;;;;;;;8.45;100.00;102125.34;6301140;28;20055;-68
2021/11/06 13:29:23;;;;;;;6.93;3.10;;;;;;;8.54;100.00;102121.63;6296109;28;20416;-69
2021/11/06 13:32:24;;;;;;;4.63;2.60;;;;;;;8.56;100.00;102117.25;6300778;28;20044;-68
2021/11/06 13:35:29;;;;;;;4.95;2.78;;;;;;;8.57;100.00;102106.72;6300025;28;20048;-69
2021/11/06 13:38:39;;;;;;;4.15;2.28;;;;;;;8.53;100.00;102107.69;6300669;28;20040;-68
2021/11/06 13:41:41;;;;;;;3.92;2.60;;;;;;;8.61;100.00;102095.28;6298473;28;20431;-68
2021/11/06 13:44:42;;;;;;;3.92;2.17;;;;;;;8.60;100.00;102096.16;6297979;28;20048;-68
2021/11/06 13:47:44;;;;;;;4.70;2.67;;;;;;;8.56;100.00;102084.03;6300545;28;20519;-68
2021/11/06 13:50:47;;;;;;;5.38;2.80;;;;;;;8.60;100.00;102076.97;6298610;28;20191;-69
2021/11/06 13:54:01;;;;;;;4.97;2.45;;;;;;;8.63;100.00;102075.16;6290980;28;20500;-69
2021/11/06 13:57:10;;;;;;;8.40;2.53;;;;;;;8.64;100.00;102071.63;6298365;28;20049;-68
2021/11/06 14:00:13;;;;;;;5.72;2.50;;;;;;;8.64;100.00;102058.53;6300319;28;20055;-69
2021/11/06 14:03:16;;;;;;;5.07;2.60;;;;;;;8.66;100.00;102049.75;6299965;28;20059;-68
2021/11/06 14:06:18;;;;;;;5.90;2.80;;;;;;;8.62;100.00;102048.97;6299379;28;20041;-67
2021/11/06 14:09:22;;;;;;;5.45;2.30;;;;;;;8.63;100.00;102045.47;6299763;28;20041;-68